Mentor, Kansas
Current Conditions -  °F | °C
As of 8:53 PM on Saturday 20 Dec 2014 (Local Time) from KSLN Reporting Station
Clear Clear  
Wind Chill: 33°   Ceiling: Unl
Heat Index: 40°   Visibility: 10mi
Dew Point: 36°   Wind: 10mph
Humidity: 86%   Direction: 180°S
Pressure: 30.05"   Gusts: NA
Location:  38.6728°N, 97.576°W
Report Text: KSLN 210253Z 18009KT 10SM CLR 04/02 A3005 RMK AO2 SLP186 T00440022 58006
Loading
Personal Weather Stations






























Interactive Weather Map New forecast layout! Learn more

10-Day Weather Forecast

Advertisements
Track Severe Weather on mobile